»·PEaware :: N1021M KOTH-KPDX

N1021M :: KOTH-KPDX

FLIGHT INFORMATION

Flight Status: Arrived
Operator: Privately registered:
United States
More flights under this callsign
Pilot: Matthew M. (27032)
Aircraft: SOCATA TBM-900
(TBM9)
More flights by this aircraft type
Origin: KOTH North Bend Mun
United States
Destination: KPDX Portland Intl
United States
More flights between these airports :: More routes between these airports
Route: OTH7 OTH V287 BTG
File this flight plan on PilotEdge
Remarks:
Altitude:
(Current/Filed)
19,000ft
Speed:
(Current/Filed)
300kts
Departed: 06-Jul-20 11:00 AM
Arrived: 06-Jul-20 11:50 AM
Distance/Time
Traveled:
148nm/0:50
Distance/Time
To Go:
Arrived

Flight Plot

Page will automatically refresh every two minutes.


Map Options




Map Legend


Flown Route
Filed Route
Departure Airport
Arrival Airport
Navaid (VOR, NDB)
Fix

Horizontal Profiles

Position Reports

Time Latitude Longitude Heading Altitude Ground
Speed
06-Jul-20 10:39 43.417595 -124.247355 328 22ft 0kts
06-Jul-20 10:40 43.417595 -124.247355 328 22ft 0kts
06-Jul-20 10:41 43.417595 -124.247355 328 22ft 0kts
06-Jul-20 10:42 43.417595 -124.247355 328 22ft 0kts
06-Jul-20 10:44 43.417595 -124.247355 328 22ft 0kts
06-Jul-20 10:45 43.417595 -124.247355 328 22ft 0kts
06-Jul-20 10:46 43.417595 -124.247355 328 22ft 0kts
06-Jul-20 10:47 43.417595 -124.247355 328 22ft 0kts
06-Jul-20 10:48 43.417595 -124.247355 328 22ft 0kts
06-Jul-20 10:49 43.417595 -124.247355 328 22ft 0kts
06-Jul-20 10:50 43.417595 -124.247355 328 22ft 0kts
06-Jul-20 10:51 43.417595 -124.247355 328 22ft 0kts
06-Jul-20 10:52 43.417595 -124.247355 328 22ft 0kts
06-Jul-20 10:53 43.417595 -124.247356 328 22ft 0kts
06-Jul-20 10:54 43.417595 -124.247355 328 22ft 0kts
06-Jul-20 10:55 43.417595 -124.247356 328 22ft 0kts
06-Jul-20 10:56 43.418850 -124.247362 241 19ft 3kts
06-Jul-20 10:57 43.416095 -124.254193 242 13ft 28kts
06-Jul-20 10:58 43.413863 -124.259825 317 3ft 6kts
06-Jul-20 10:59 43.414813 -124.260374 50 3ft 7kts
06-Jul-20 10:59 43.423311 -124.239802 53 567ft 118kts
06-Jul-20 11:01 43.424270 -124.275178 230 2803ft 162kts
06-Jul-20 11:02 43.421924 -124.324696 350 4768ft 162kts
06-Jul-20 11:02 43.429688 -124.281493 98 6343ft 173kts
06-Jul-20 11:04 43.419378 -124.205944 98 8685ft 174kts
06-Jul-20 11:04 43.432377 -124.158348 21 10400ft 184kts
06-Jul-20 11:05 43.479929 -124.130303 21 12407ft 189kts
06-Jul-20 11:07 43.536087 -124.096886 20 14708ft 188kts
06-Jul-20 11:07 43.575480 -124.073418 19 16327ft 184kts
06-Jul-20 11:08 43.621177 -124.046152 17 18255ft 174kts
06-Jul-20 11:09 43.670426 -124.016842 19 19245ft 238kts
06-Jul-20 11:10 43.739569 -123.975378 19 19203ft 291kts
06-Jul-20 11:11 43.815222 -123.929947 20 19195ft 301kts
06-Jul-20 11:12 43.892540 -123.883395 20 19144ft 304kts
06-Jul-20 11:13 43.969952 -123.836663 21 19201ft 304kts
06-Jul-20 11:14 44.047880 -123.789462 21 19197ft 305kts
06-Jul-20 11:15 44.125714 -123.742191 21 19186ft 306kts
06-Jul-20 11:16 44.203571 -123.694772 21 19179ft 305kts
06-Jul-20 11:17 44.281465 -123.647192 21 19173ft 305kts
06-Jul-20 11:18 44.359201 -123.599571 21 19166ft 305kts
06-Jul-20 11:19 44.437124 -123.551700 21 19166ft 305kts
06-Jul-20 11:20 44.514752 -123.503870 21 19166ft 305kts
06-Jul-20 11:21 44.592458 -123.455853 21 19166ft 305kts
06-Jul-20 11:22 44.670347 -123.407580 21 19167ft 305kts
06-Jul-20 11:23 44.747935 -123.359352 21 19168ft 305kts
06-Jul-20 11:24 44.825824 -123.310798 21 19161ft 305kts
06-Jul-20 11:25 44.903493 -123.262236 21 19155ft 305kts
06-Jul-20 11:26 44.980987 -123.213637 21 19152ft 305kts
06-Jul-20 11:27 45.060487 -123.163646 22 18258ft 326kts
06-Jul-20 11:28 45.142729 -123.111750 22 16760ft 320kts
06-Jul-20 11:29 45.223153 -123.060840 22 15243ft 312kts
06-Jul-20 11:30 45.301006 -123.011401 22 13278ft 301kts
06-Jul-20 11:31 45.372940 -122.959140 33 11255ft 271kts
06-Jul-20 11:32 45.431140 -122.902328 32 10004ft 240kts
06-Jul-20 11:33 45.470610 -122.825909 74 8878ft 267kts
06-Jul-20 11:34 45.487754 -122.733024 74 6966ft 246kts
06-Jul-20 11:35 45.491801 -122.639575 124 5022ft 231kts
06-Jul-20 11:36 45.453406 -122.558036 124 5003ft 245kts
06-Jul-20 11:37 45.411009 -122.470411 124 4069ft 267kts
06-Jul-20 11:38 45.367646 -122.383743 124 2996ft 250kts
06-Jul-20 11:39 45.377853 -122.306772 34 2997ft 213kts
06-Jul-20 11:40 45.420444 -122.263220 35 2988ft 165kts
06-Jul-20 11:41 45.458699 -122.277282 325 2998ft 152kts
06-Jul-20 11:42 45.487700 -122.318601 298 3001ft 149kts
06-Jul-20 11:43 45.508989 -122.375645 301 2470ft 159kts
06-Jul-20 11:44 45.528766 -122.425761 299 2283ft 146kts
06-Jul-20 11:45 45.546533 -122.471578 299 1611ft 103kts
06-Jul-20 11:46 45.559595 -122.505152 299 1050ft 90kts
06-Jul-20 11:47 45.571318 -122.535245 300 548ft 82kts
06-Jul-20 11:48 45.582354 -122.563785 300 115ft 80kts
06-Jul-20 11:49 45.586234 -122.576397 200 26ft 3kts
06-Jul-20 11:50 45.588207 -122.581942 290 26ft 12kts
06-Jul-20 11:51 45.587243 -122.583698 116 26ft 0kts
06-Jul-20 11:52 45.587243 -122.583699 116 26ft 0kts
06-Jul-20 11:53 45.587243 -122.583699 116 26ft 0kts

Navigation Log

Ident Type
Flight plan parsing failed, navigation log unavailable